Time;durP1;ratioP1;P1;durP2;ratioP2;P2;SDS_P1;SDS_P2;PMS_P1;PMS_P2;Temp;Humidity;BMP_temperature;BMP_pressure;BME280_temperature;BME280_humidity;BME280_pressure;Samples;Min_cycle;Max_cycle;Signal;HPM_P1;HPM_P2
2024/01/29 00:00:09;;;;;;;4.97;1.85;;;3.70;99.90;;;;;;4952387;28;20047;-80
2024/01/29 00:02:37;;;;;;;5.07;2.50;;;3.70;99.90;;;;;;4969864;28;20398;-81
2024/01/29 00:05:04;;;;;;;4.28;2.70;;;3.70;99.90;;;;;;4939381;28;20039;-80
2024/01/29 00:07:30;;;;;;;6.00;3.30;;;3.60;99.90;;;;;;4935966;28;20129;-81
2024/01/29 00:09:56;;;;;;;5.90;2.60;;;3.60;99.90;;;;;;4939233;28;20475;-82
2024/01/29 00:12:22;;;;;;;5.57;3.00;;;3.60;99.90;;;;;;4951328;28;20434;-81
2024/01/29 00:14:49;;;;;;;6.32;3.15;;;3.60;99.90;;;;;;4970051;28;20396;-81
2024/01/29 00:17:15;;;;;;;7.60;2.70;;;3.60;99.90;;;;;;4985991;28;20483;-80
2024/01/29 00:19:42;;;;;;;7.25;2.40;;;3.60;99.90;;;;;;4939262;28;20035;-81
2024/01/29 00:22:08;;;;;;;5.45;2.38;;;3.60;99.90;;;;;;4969876;28;20529;-81
2024/01/29 00:24:34;;;;;;;4.72;2.38;;;3.60;99.90;;;;;;4969842;28;20043;-80
2024/01/29 00:27:01;;;;;;;5.53;2.80;;;3.60;99.90;;;;;;4970417;28;20046;-81
2024/01/29 00:29:28;;;;;;;5.35;2.30;;;3.60;99.90;;;;;;4965155;28;20035;-81
2024/01/29 00:31:54;;;;;;;5.05;2.63;;;3.60;99.90;;;;;;4985475;28;20039;-82
2024/01/29 00:34:21;;;;;;;4.80;2.30;;;3.60;99.90;;;;;;4952503;28;20402;-81
2024/01/29 00:36:48;;;;;;;6.75;2.60;;;3.60;99.90;;;;;;4952480;28;20039;-81
2024/01/29 00:39:14;;;;;;;5.30;2.30;;;3.60;99.90;;;;;;4953046;28;20029;-81
2024/01/29 00:41:40;;;;;;;5.70;2.92;;;3.50;99.90;;;;;;4936530;28;20565;-80
2024/01/29 00:44:07;;;;;;;6.37;2.37;;;3.50;99.90;;;;;;4952116;28;20051;-82
2024/01/29 00:46:33;;;;;;;6.53;2.65;;;3.50;99.90;;;;;;4952775;28;20027;-81
2024/01/29 00:48:59;;;;;;;5.03;2.67;;;3.50;99.90;;;;;;4953291;28;20043;-82
2024/01/29 00:51:26;;;;;;;4.60;1.93;;;3.50;99.90;;;;;;4950114;28;20031;-80
2024/01/29 00:53:52;;;;;;;4.93;2.00;;;3.50;99.90;;;;;;4968362;28;20047;-81
2024/01/29 00:56:18;;;;;;;4.88;2.20;;;3.50;99.90;;;;;;4935565;28;20035;-81
2024/01/29 00:58:45;;;;;;;4.63;2.47;;;3.40;99.90;;;;;;4938458;28;20054;-81
2024/01/29 01:01:12;;;;;;;4.82;2.30;;;3.40;99.90;;;;;;4953116;28;20500;-81
2024/01/29 01:03:39;;;;;;;4.47;2.17;;;3.40;99.90;;;;;;4949688;28;20054;-82
2024/01/29 01:06:05;;;;;;;6.60;2.60;;;3.40;99.90;;;;;;4968831;28;20042;-81
2024/01/29 01:08:31;;;;;;;4.23;1.97;;;3.30;99.90;;;;;;4935300;28;20066;-81
2024/01/29 01:10:58;;;;;;;3.70;1.80;;;3.30;99.90;;;;;;4936431;28;20042;-82
2024/01/29 01:13:24;;;;;;;3.63;1.53;;;3.30;99.90;;;;;;4968808;28;20035;-81
2024/01/29 01:15:50;;;;;;;3.05;1.73;;;3.20;99.90;;;;;;4937664;29;20042;-81
2024/01/29 01:18:17;;;;;;;4.32;1.98;;;3.20;99.90;;;;;;4933442;28;20054;-82
2024/01/29 01:20:43;;;;;;;3.22;1.50;;;3.10;99.90;;;;;;4984606;28;20427;-81
2024/01/29 01:23:09;;;;;;;3.40;1.42;;;3.10;99.90;;;;;;4935818;28;20034;-81
2024/01/29 01:25:36;;;;;;;4.03;1.80;;;3.00;99.90;;;;;;4937601;28;20354;-82
2024/01/29 01:28:03;;;;;;;3.43;1.60;;;3.00;99.90;;;;;;4966502;28;20039;-81
2024/01/29 01:30:30;;;;;;;5.00;1.90;;;2.90;99.90;;;;;;4934747;28;20042;-81
2024/01/29 01:32:56;;;;;;;4.00;1.38;;;2.90;99.90;;;;;;4951888;28;20371;-82
2024/01/29 01:35:22;;;;;;;2.97;1.52;;;2.90;99.90;;;;;;4968489;28;20083;-81
2024/01/29 01:37:48;;;;;;;4.43;1.47;;;2.90;99.90;;;;;;4968238;28;20054;-80
2024/01/29 01:40:15;;;;;;;2.83;1.40;;;2.90;99.90;;;;;;4955527;28;20035;-80
2024/01/29 01:42:42;;;;;;;2.50;1.63;;;2.80;99.90;;;;;;4987371;28;20140;-80
2024/01/29 01:45:09;;;;;;;3.17;1.67;;;2.80;99.90;;;;;;4951470;28;20043;-81
2024/01/29 01:47:36;;;;;;;4.07;1.57;;;2.80;99.90;;;;;;4952635;28;20039;-81
2024/01/29 01:50:07;;;;;;;2.70;1.60;;;2.80;99.90;;;;;;4969111;28;20399;-80
2024/01/29 01:52:35;;;;;;;3.55;1.70;;;2.80;99.90;;;;;;4984230;28;20035;-81
2024/01/29 01:55:01;;;;;;;3.40;1.20;;;2.70;99.90;;;;;;4935680;28;20043;-81
2024/01/29 01:57:29;;;;;;;2.33;1.57;;;2.80;99.90;;;;;;4936431;28;20430;-81
2024/01/29 01:59:56;;;;;;;2.43;1.27;;;2.70;99.90;;;;;;4949755;28;20027;-80
2024/01/29 02:02:22;;;;;;;2.13;1.20;;;2.80;99.90;;;;;;4935382;28;20043;-80
2024/01/29 02:04:49;;;;;;;2.40;1.30;;;2.70;99.90;;;;;;4968509;28;20039;-81
2024/01/29 02:07:15;;;;;;;3.72;1.63;;;2.70;99.90;;;;;;4937687;28;20031;-81
2024/01/29 02:09:42;;;;;;;3.03;1.63;;;2.70;99.90;;;;;;4962682;28;20043;-80
2024/01/29 02:12:09;;;;;;;2.17;1.10;;;2.70;99.90;;;;;;4968119;28;20316;-80
2024/01/29 02:14:36;;;;;;;3.10;1.70;;;2.70;99.90;;;;;;4936733;28;20043;-81
2024/01/29 02:17:03;;;;;;;4.07;1.57;;;2.80;99.90;;;;;;4935711;28;20112;-80
2024/01/29 02:19:29;;;;;;;2.67;1.63;;;2.70;99.90;;;;;;4951569;28;20035;-80
2024/01/29 02:21:56;;;;;;;3.53;1.75;;;2.70;99.90;;;;;;4951758;28;20545;-80
2024/01/29 02:24:22;;;;;;;4.57;1.90;;;2.70;99.90;;;;;;4950532;28;20047;-81
2024/01/29 02:26:48;;;;;;;4.83;2.03;;;2.70;99.90;;;;;;4951302;28;20023;-80
2024/01/29 02:29:15;;;;;;;4.90;2.67;;;2.70;99.90;;;;;;4952232;28;20047;-81
2024/01/29 02:31:41;;;;;;;4.40;1.77;;;2.70;99.90;;;;;;4936957;28;20051;-80
2024/01/29 02:34:08;;;;;;;4.63;2.20;;;2.60;99.90;;;;;;4968169;28;20047;-80
2024/01/29 02:36:34;;;;;;;2.53;1.40;;;2.50;99.90;;;;;;4951687;28;20350;-81
2024/01/29 02:39:00;;;;;;;3.60;1.87;;;2.50;99.90;;;;;;4951743;28;20502;-80
2024/01/29 02:41:27;;;;;;;3.07;1.60;;;2.50;99.90;;;;;;4967738;28;20058;-81
2024/01/29 02:43:53;;;;;;;2.93;1.57;;;2.50;99.90;;;;;;4947183;28;20028;-79
2024/01/29 02:46:19;;;;;;;2.60;1.50;;;2.50;99.90;;;;;;4948860;28;20479;-80
2024/01/29 02:48:46;;;;;;;3.23;1.80;;;2.50;99.90;;;;;;4934805;28;20043;-81
2024/01/29 02:51:12;;;;;;;3.07;1.50;;;2.50;99.90;;;;;;4967456;28;20035;-81
2024/01/29 02:53:39;;;;;;;3.10;1.53;;;2.40;99.90;;;;;;4984101;28;20031;-81
2024/01/29 02:56:05;;;;;;;3.20;1.93;;;2.40;99.90;;;;;;4946413;28;20043;-80
2024/01/29 02:58:32;;;;;;;2.63;1.57;;;2.40;99.90;;;;;;4935338;28;20055;-80
2024/01/29 03:00:58;;;;;;;3.60;1.93;;;2.40;99.90;;;;;;4936540;28;20027;-81
2024/01/29 03:03:24;;;;;;;2.57;1.60;;;2.30;99.90;;;;;;4935441;28;20375;-80
2024/01/29 03:05:51;;;;;;;5.00;2.00;;;2.30;99.90;;;;;;4968561;28;20030;-80
2024/01/29 03:08:17;;;;;;;3.37;2.10;;;2.30;99.90;;;;;;4940541;28;20046;-80
2024/01/29 03:10:43;;;;;;;3.97;2.10;;;2.30;99.90;;;;;;4953618;28;20035;-80
2024/01/29 03:13:10;;;;;;;2.60;1.90;;;2.30;99.90;;;;;;4922360;29;20057;-81
2024/01/29 03:15:36;;;;;;;2.50;1.83;;;2.20;99.90;;;;;;4954517;28;21012;-81
2024/01/29 03:18:03;;;;;;;2.83;1.67;;;2.20;99.90;;;;;;4937931;28;20047;-81
2024/01/29 03:20:29;;;;;;;3.70;2.23;;;2.20;99.90;;;;;;4955165;28;20046;-80
2024/01/29 03:22:56;;;;;;;2.43;1.93;;;2.20;99.90;;;;;;4938912;29;20039;-81
2024/01/29 03:25:22;;;;;;;3.20;2.00;;;2.20;99.90;;;;;;4952979;28;20038;-81
2024/01/29 03:27:48;;;;;;;2.97;1.50;;;2.20;99.90;;;;;;4971584;28;20043;-80
2024/01/29 03:30:15;;;;;;;3.20;2.40;;;2.20;99.90;;;;;;4971493;28;20502;-82
2024/01/29 03:32:41;;;;;;;4.87;2.67;;;2.20;99.90;;;;;;4955953;28;20041;-80
2024/01/29 03:35:08;;;;;;;4.27;2.37;;;2.20;99.90;;;;;;4974012;28;20042;-79
2024/01/29 03:37:35;;;;;;;7.47;2.23;;;2.20;99.90;;;;;;4955841;28;20051;-80
2024/01/29 03:40:04;;;;;;;5.30;2.67;;;2.20;99.90;;;;;;4972064;28;20034;-81
2024/01/29 03:42:30;;;;;;;4.53;2.28;;;2.20;99.90;;;;;;4971083;28;20490;-80
2024/01/29 03:44:57;;;;;;;3.90;2.17;;;2.20;99.90;;;;;;4971481;28;20046;-80
2024/01/29 03:47:23;;;;;;;4.07;2.47;;;2.20;99.90;;;;;;4971900;28;20050;-81
2024/01/29 03:49:49;;;;;;;5.00;2.73;;;2.20;99.90;;;;;;4954942;28;20047;-82
2024/01/29 03:52:16;;;;;;;4.97;2.33;;;2.20;99.90;;;;;;4953533;28;20023;-80
2024/01/29 03:54:42;;;;;;;4.93;2.63;;;2.20;99.90;;;;;;4970808;28;20039;-80
2024/01/29 03:57:08;;;;;;;4.57;2.77;;;2.20;99.90;;;;;;4971184;28;20078;-81
2024/01/29 03:59:35;;;;;;;3.50;2.07;;;2.10;99.90;;;;;;4953172;28;20422;-81
2024/01/29 04:02:02;;;;;;;3.53;1.93;;;2.10;99.90;;;;;;4939648;28;20031;-81
2024/01/29 04:04:28;;;;;;;4.40;2.70;;;2.10;99.90;;;;;;4953569;28;20031;-81
2024/01/29 04:06:54;;;;;;;5.23;2.40;;;2.20;99.90;;;;;;4938151;28;20027;-81
2024/01/29 04:09:22;;;;;;;4.53;1.97;;;2.10;99.90;;;;;;4970790;28;20031;-81
2024/01/29 04:11:51;;;;;;;4.37;1.83;;;2.10;99.90;;;;;;4935166;28;20395;-81
2024/01/29 04:14:18;;;;;;;4.07;2.30;;;2.10;99.90;;;;;;4970391;28;20043;-81
2024/01/29 04:16:45;;;;;;;4.30;2.27;;;2.10;99.90;;;;;;4950407;28;20035;-81
2024/01/29 04:19:12;;;;;;;4.07;2.27;;;2.00;99.90;;;;;;4986234;28;20394;-82
2024/01/29 04:21:43;;;;;;;3.17;1.90;;;2.00;99.90;;;;;;4954379;28;20031;-81
2024/01/29 04:24:13;;;;;;;4.30;2.37;;;2.00;99.90;;;;;;4954542;28;20042;-80
2024/01/29 04:26:40;;;;;;;4.53;2.77;;;2.00;99.90;;;;;;4984116;28;20495;-80
2024/01/29 04:29:08;;;;;;;4.40;2.33;;;2.00;99.90;;;;;;4986547;28;20399;-81
2024/01/29 04:31:35;;;;;;;5.40;2.67;;;2.10;99.90;;;;;;4938185;28;20039;-80
2024/01/29 04:34:02;;;;;;;4.33;2.40;;;2.10;99.90;;;;;;4970466;28;20042;-80
2024/01/29 04:36:28;;;;;;;4.07;2.77;;;2.10;99.90;;;;;;4935773;28;20039;-80
2024/01/29 04:38:55;;;;;;;4.33;2.73;;;2.10;99.90;;;;;;4970570;28;20039;-79
2024/01/29 04:41:22;;;;;;;4.23;2.43;;;2.10;99.90;;;;;;4937943;28;20043;-80
2024/01/29 04:43:49;;;;;;;3.63;2.57;;;2.10;99.90;;;;;;4939566;28;20457;-80
2024/01/29 04:46:15;;;;;;;3.47;1.73;;;2.10;99.90;;;;;;4970006;28;20043;-80
2024/01/29 04:48:42;;;;;;;3.90;2.83;;;2.10;99.90;;;;;;4954073;28;20043;-80
2024/01/29 04:51:09;;;;;;;3.77;1.90;;;2.10;99.90;;;;;;4935986;28;20035;-80
2024/01/29 04:53:36;;;;;;;4.07;2.53;;;2.10;99.90;;;;;;4970407;28;20407;-80
2024/01/29 04:56:03;;;;;;;4.57;2.30;;;2.10;99.90;;;;;;4937036;28;20050;-80
2024/01/29 04:58:30;;;;;;;3.10;2.03;;;2.00;99.90;;;;;;4953951;28;20077;-80
2024/01/29 05:00:58;;;;;;;3.57;2.10;;;2.10;99.90;;;;;;4939102;28;20031;-80
2024/01/29 05:03:26;;;;;;;3.67;2.33;;;2.00;99.90;;;;;;4937861;28;20513;-81
2024/01/29 05:05:52;;;;;;;3.60;2.70;;;2.00;99.90;;;;;;4970168;28;20039;-80
2024/01/29 05:08:19;;;;;;;3.23;1.93;;;2.00;99.90;;;;;;4969927;28;20565;-80
2024/01/29 05:10:45;;;;;;;4.07;2.67;;;2.00;99.90;;;;;;4936008;28;20039;-80
2024/01/29 05:13:12;;;;;;;4.47;2.47;;;2.00;99.90;;;;;;4969427;28;20035;-80
2024/01/29 05:15:38;;;;;;;5.10;2.30;;;2.00;99.90;;;;;;4952692;28;20046;-81
2024/01/29 05:18:05;;;;;;;3.90;2.70;;;2.00;99.90;;;;;;4939092;28;20031;-79
2024/01/29 05:20:31;;;;;;;5.90;3.13;;;1.90;99.90;;;;;;4968814;28;20059;-79
2024/01/29 05:22:58;;;;;;;3.60;2.53;;;1.90;99.90;;;;;;4969569;28;20452;-80
2024/01/29 05:25:25;;;;;;;5.07;3.20;;;1.90;99.90;;;;;;4937255;28;20043;-80
2024/01/29 05:27:51;;;;;;;3.90;2.23;;;1.90;99.90;;;;;;4955633;28;20043;-80
2024/01/29 05:30:18;;;;;;;4.37;2.33;;;1.90;99.90;;;;;;4951927;28;20506;-80
2024/01/29 05:32:44;;;;;;;4.90;2.70;;;1.90;99.90;;;;;;4954145;28;21088;-80
2024/01/29 05:35:11;;;;;;;4.00;2.83;;;1.90;99.90;;;;;;4970191;28;20039;-80
2024/01/29 05:37:37;;;;;;;4.50;3.13;;;1.90;99.90;;;;;;4969477;28;20031;-80
2024/01/29 05:40:04;;;;;;;5.20;2.80;;;1.80;99.90;;;;;;4938439;28;20046;-80
2024/01/29 05:42:31;;;;;;;4.43;2.37;;;1.80;99.90;;;;;;4968884;28;20825;-79
2024/01/29 05:44:57;;;;;;;5.00;2.40;;;1.80;99.90;;;;;;4935572;28;20043;-82
2024/01/29 05:47:24;;;;;;;4.50;2.97;;;1.80;99.90;;;;;;4951873;28;20039;-82
2024/01/29 05:49:50;;;;;;;5.37;2.97;;;1.80;99.90;;;;;;4936404;28;20039;-83
2024/01/29 05:52:16;;;;;;;4.53;2.60;;;1.80;99.90;;;;;;4967243;28;20038;-81
2024/01/29 05:54:43;;;;;;;4.57;2.77;;;1.90;99.90;;;;;;4951720;28;20039;-81
2024/01/29 05:57:10;;;;;;;4.57;2.53;;;1.90;99.90;;;;;;4951709;28;20058;-83
2024/01/29 05:59:40;;;;;;;5.67;3.13;;;1.90;99.90;;;;;;4951922;28;20049;-83
2024/01/29 06:02:07;;;;;;;3.70;2.17;;;1.90;99.90;;;;;;4937950;28;20060;-81
2024/01/29 06:04:33;;;;;;;3.93;2.93;;;1.90;99.90;;;;;;4951019;28;20077;-81
2024/01/29 06:07:00;;;;;;;5.83;2.83;;;1.90;99.90;;;;;;4952716;28;20353;-81
2024/01/29 06:09:26;;;;;;;5.30;2.40;;;2.00;99.90;;;;;;4936208;28;20032;-82
2024/01/29 06:11:54;;;;;;;4.67;2.73;;;2.00;99.90;;;;;;4934555;28;20420;-82
2024/01/29 06:14:20;;;;;;;4.47;2.90;;;2.00;99.90;;;;;;4968322;28;20054;-81
2024/01/29 06:16:47;;;;;;;4.97;2.97;;;2.10;99.90;;;;;;4950825;28;20046;-81
2024/01/29 06:19:17;;;;;;;4.87;2.83;;;2.10;99.90;;;;;;4952583;28;20463;-82
2024/01/29 06:21:49;;;;;;;7.53;3.10;;;2.20;99.90;;;;;;4952248;28;20054;-83
2024/01/29 06:24:16;;;;;;;10.90;3.73;;;2.20;99.90;;;;;;4936858;28;20042;-82
2024/01/29 06:26:43;;;;;;;5.27;3.10;;;2.30;99.90;;;;;;4964753;28;20043;-82
2024/01/29 06:29:10;;;;;;;6.37;2.80;;;2.30;99.90;;;;;;4951581;28;20486;-82
2024/01/29 06:31:40;;;;;;;4.70;3.23;;;2.30;99.90;;;;;;4950284;28;20405;-81
2024/01/29 06:34:06;;;;;;;5.73;4.00;;;2.30;99.90;;;;;;4951322;28;20046;-81
2024/01/29 06:36:33;;;;;;;5.17;3.17;;;2.30;99.90;;;;;;4967031;28;20082;-81
2024/01/29 06:39:00;;;;;;;5.77;3.53;;;2.40;99.90;;;;;;4955803;28;20039;-82
2024/01/29 06:41:27;;;;;;;5.17;3.40;;;2.30;99.90;;;;;;4934151;28;20035;-81
2024/01/29 06:43:54;;;;;;;5.00;3.20;;;2.30;99.90;;;;;;4952130;28;20292;-82
2024/01/29 06:46:21;;;;;;;4.37;2.90;;;2.30;99.90;;;;;;4938491;28;20534;-81
2024/01/29 06:48:48;;;;;;;6.27;2.40;;;2.40;99.90;;;;;;4971011;28;20054;-81
2024/01/29 06:51:17;;;;;;;5.07;2.70;;;2.40;99.90;;;;;;4954841;28;20042;-81
2024/01/29 06:53:44;;;;;;;3.47;2.63;;;2.30;99.90;;;;;;4939413;28;20035;-81
2024/01/29 06:56:10;;;;;;;4.00;2.80;;;2.30;99.90;;;;;;4972411;28;20043;-81
2024/01/29 06:58:37;;;;;;;4.50;3.17;;;2.40;99.90;;;;;;4921195;29;20050;-81
2024/01/29 07:01:06;;;;;;;4.30;3.30;;;2.40;99.90;;;;;;4971254;28;20043;-82
2024/01/29 07:03:33;;;;;;;3.77;2.67;;;2.40;99.90;;;;;;4954886;28;20054;-82
2024/01/29 07:05:59;;;;;;;4.20;2.83;;;2.40;99.90;;;;;;4966717;28;20057;-80
2024/01/29 07:08:25;;;;;;;3.63;3.10;;;2.40;99.90;;;;;;4936927;28;21600;-81
2024/01/29 07:10:52;;;;;;;6.17;3.53;;;2.40;99.90;;;;;;4970980;28;20041;-82
2024/01/29 07:13:19;;;;;;;5.13;3.43;;;2.50;99.90;;;;;;4970668;28;20027;-82
2024/01/29 07:15:45;;;;;;;4.03;2.93;;;2.50;99.90;;;;;;4955626;28;20420;-83
2024/01/29 07:18:12;;;;;;;4.40;3.37;;;2.40;99.90;;;;;;4955763;28;20375;-81
2024/01/29 07:20:39;;;;;;;3.97;2.93;;;2.50;99.90;;;;;;4955811;28;20042;-82
2024/01/29 07:23:09;;;;;;;4.13;2.50;;;2.60;99.90;;;;;;4971743;28;20039;-80
2024/01/29 07:25:35;;;;;;;5.63;3.60;;;2.60;99.90;;;;;;4956428;28;20046;-82
2024/01/29 07:28:05;;;;;;;5.93;4.07;;;2.70;99.90;;;;;;4939815;28;20391;-81
2024/01/29 07:30:32;;;;;;;6.03;3.67;;;2.70;99.90;;;;;;4988825;28;20039;-81
2024/01/29 07:32:59;;;;;;;3.73;2.67;;;2.70;99.90;;;;;;4922539;29;20070;-80
2024/01/29 07:35:26;;;;;;;5.13;3.07;;;2.70;99.90;;;;;;4955102;28;20039;-80
2024/01/29 07:37:53;;;;;;;4.40;3.00;;;2.70;99.90;;;;;;4954295;28;20047;-81
2024/01/29 07:40:20;;;;;;;4.40;3.37;;;2.80;99.90;;;;;;4940418;28;20035;-82
2024/01/29 07:42:47;;;;;;;5.38;3.55;;;2.80;99.90;;;;;;4969853;28;20054;-83
2024/01/29 07:45:15;;;;;;;5.80;2.97;;;2.80;99.90;;;;;;4971488;28;20035;-82
2024/01/29 07:47:41;;;;;;;7.80;3.77;;;2.90;99.90;;;;;;4953869;28;20399;-84
2024/01/29 07:50:08;;;;;;;4.47;2.83;;;2.90;99.90;;;;;;4954925;28;20042;-83
2024/01/29 07:52:34;;;;;;;5.53;3.70;;;2.90;99.90;;;;;;4970291;28;20047;-82
2024/01/29 07:55:01;;;;;;;6.17;2.60;;;3.00;99.90;;;;;;4954736;28;20475;-83
2024/01/29 07:57:27;;;;;;;4.77;2.70;;;3.00;99.90;;;;;;4955008;28;20050;-83
2024/01/29 07:59:53;;;;;;;3.93;2.20;;;3.10;99.90;;;;;;4955375;28;20200;-83
2024/01/29 08:02:20;;;;;;;3.63;2.30;;;3.20;99.90;;;;;;4939940;28;20042;-83
2024/01/29 08:04:46;;;;;;;4.47;2.83;;;3.30;99.90;;;;;;4971043;28;20384;-80
2024/01/29 08:07:13;;;;;;;3.93;2.40;;;3.40;99.90;;;;;;4953503;28;20046;-82
2024/01/29 08:09:39;;;;;;;4.70;2.93;;;3.50;99.90;;;;;;4940218;28;20054;-82
2024/01/29 08:12:05;;;;;;;3.57;2.83;;;3.60;99.90;;;;;;4987068;28;20039;-84
2024/01/29 08:14:32;;;;;;;4.37;2.90;;;3.60;99.90;;;;;;4954228;28;20038;-83
2024/01/29 08:16:59;;;;;;;3.47;2.40;;;3.70;99.90;;;;;;4970827;28;20355;-83
2024/01/29 08:19:25;;;;;;;3.93;3.30;;;3.80;99.90;;;;;;4936451;28;20051;-80
2024/01/29 08:21:51;;;;;;;4.72;3.53;;;3.90;99.90;;;;;;4954491;28;20043;-81
2024/01/29 08:24:18;;;;;;;5.22;4.10;;;4.00;99.90;;;;;;4953155;28;20127;-82
2024/01/29 08:26:44;;;;;;;4.22;3.28;;;4.10;99.90;;;;;;4954381;28;20046;-83
2024/01/29 08:29:10;;;;;;;6.10;3.35;;;4.20;99.90;;;;;;4939949;28;20032;-79
2024/01/29 08:31:38;;;;;;;5.95;3.58;;;4.30;99.90;;;;;;4985890;28;20398;-84
2024/01/29 08:34:04;;;;;;;7.25;4.20;;;4.40;99.90;;;;;;4954164;28;20372;-83
2024/01/29 08:36:30;;;;;;;6.17;3.47;;;4.60;99.90;;;;;;4938067;28;20588;-83
2024/01/29 08:38:57;;;;;;;6.40;4.13;;;4.70;99.90;;;;;;4937609;28;20046;-84
2024/01/29 08:41:23;;;;;;;5.60;3.92;;;4.80;99.90;;;;;;4969618;28;20039;-82
2024/01/29 08:43:49;;;;;;;4.50;2.70;;;5.00;99.90;;;;;;4970733;28;20086;-84
2024/01/29 08:46:16;;;;;;;8.38;4.85;;;5.10;99.90;;;;;;4939087;28;20043;-83
2024/01/29 08:48:42;;;;;;;6.15;3.83;;;5.20;99.90;;;;;;4986650;28;20050;-84
2024/01/29 08:51:09;;;;;;;6.13;4.23;;;5.30;99.90;;;;;;4969849;28;20047;-80
2024/01/29 08:53:36;;;;;;;6.93;4.20;;;5.40;99.90;;;;;;4953548;28;20051;-80
2024/01/29 08:56:07;;;;;;;5.35;3.55;;;5.50;99.90;;;;;;4967463;28;20078;-83
2024/01/29 08:58:33;;;;;;;6.25;4.68;;;5.60;99.90;;;;;;4970616;28;20416;-82
2024/01/29 09:01:02;;;;;;;7.25;4.30;;;5.70;99.90;;;;;;4939527;28;20035;-81
2024/01/29 09:03:28;;;;;;;5.95;4.95;;;5.80;99.90;;;;;;4966613;28;20050;-82
2024/01/29 09:05:55;;;;;;;5.13;3.83;;;5.80;99.90;;;;;;4969982;28;20035;-85
2024/01/29 09:08:22;;;;;;;6.78;4.35;;;5.90;99.90;;;;;;4969953;28;20038;-84
2024/01/29 09:10:48;;;;;;;5.55;4.50;;;6.00;99.90;;;;;;4937518;28;20031;-83
2024/01/29 09:13:14;;;;;;;8.70;5.40;;;6.10;99.90;;;;;;4952268;28;20499;-81
2024/01/29 09:15:41;;;;;;;10.55;5.35;;;6.10;99.90;;;;;;4952300;28;20039;-82
2024/01/29 09:18:07;;;;;;;6.82;5.32;;;6.10;99.90;;;;;;4942470;28;20062;-83
2024/01/29 09:20:34;;;;;;;5.90;4.20;;;6.20;99.90;;;;;;4960131;28;20031;-83
2024/01/29 09:23:00;;;;;;;7.57;5.20;;;6.20;99.90;;;;;;4959187;28;20062;-82
2024/01/29 09:25:27;;;;;;;7.35;5.30;;;6.30;99.90;;;;;;4972503;28;20038;-78
2024/01/29 09:27:53;;;;;;;8.52;4.70;;;6.30;99.90;;;;;;4952586;28;20031;-84
2024/01/29 09:30:19;;;;;;;6.13;4.78;;;6.30;99.90;;;;;;4970037;28;20466;-83
2024/01/29 09:32:46;;;;;;;8.75;5.45;;;6.30;99.90;;;;;;4950122;28;20042;-85
2024/01/29 09:35:12;;;;;;;8.32;5.60;;;6.30;99.90;;;;;;4969937;28;20031;-82
2024/01/29 09:37:39;;;;;;;6.35;4.43;;;6.40;99.90;;;;;;4969471;28;20062;-81
2024/01/29 09:40:10;;;;;;;6.68;5.20;;;6.40;99.90;;;;;;4969607;28;20391;-82
2024/01/29 09:42:39;;;;;;;6.28;4.97;;;6.50;99.90;;;;;;4969131;28;20043;-82
2024/01/29 09:45:10;;;;;;;6.32;4.82;;;6.50;99.90;;;;;;4948259;28;20050;-81
2024/01/29 09:47:37;;;;;;;7.10;5.10;;;6.60;99.90;;;;;;4949531;28;20038;-81
2024/01/29 09:50:08;;;;;;;5.80;4.63;;;6.70;99.90;;;;;;4936208;28;20279;-82
2024/01/29 09:52:37;;;;;;;5.85;4.68;;;6.80;99.90;;;;;;4938454;28;20027;-83
2024/01/29 09:55:05;;;;;;;6.40;4.65;;;6.90;99.90;;;;;;4999982;28;20038;-85
2024/01/29 09:57:32;;;;;;;6.55;4.88;;;7.00;99.90;;;;;;4967777;28;20051;-81
2024/01/29 09:59:59;;;;;;;9.52;6.90;;;7.10;99.90;;;;;;4953364;28;20431;-84
2024/01/29 10:02:25;;;;;;;7.97;5.70;;;7.20;99.90;;;;;;4968808;28;20042;-84
2024/01/29 10:04:52;;;;;;;7.82;5.93;;;7.30;99.90;;;;;;4938005;28;20501;-84
2024/01/29 10:07:18;;;;;;;16.73;10.30;;;7.40;99.90;;;;;;4919940;29;20046;-80
2024/01/29 10:09:45;;;;;;;10.63;8.15;;;7.50;99.90;;;;;;4968825;28;20040;-83
2024/01/29 10:12:22;;;;;;;10.27;7.03;;;7.70;99.90;;;;;;4952555;28;20042;-82
2024/01/29 10:14:49;;;;;;;8.35;5.90;;;7.90;99.90;;;;;;4968329;28;20046;-82
2024/01/29 10:17:15;;;;;;;6.82;5.47;;;8.20;99.90;;;;;;4951845;28;20042;-83
2024/01/29 10:19:43;;;;;;;7.72;5.28;;;8.50;99.90;;;;;;4968546;28;20035;-83
2024/01/29 10:22:13;;;;;;;8.05;5.88;;;8.80;99.90;;;;;;4952421;28;20035;-85
2024/01/29 10:24:39;;;;;;;5.45;4.40;;;9.00;99.90;;;;;;4968277;28;20023;-82
2024/01/29 10:27:06;;;;;;;6.97;5.35;;;9.30;99.90;;;;;;4935350;29;20051;-83
2024/01/29 10:29:53;;;;;;;6.68;4.65;;;9.40;99.90;;;;;;4935933;28;20035;-82
2024/01/29 10:32:26;;;;;;;7.75;4.22;;;9.50;99.90;;;;;;4967820;28;20055;-85
2024/01/29 10:34:52;;;;;;;;;;;9.60;99.90;;;;;;4967122;28;20410;-83
2024/01/29 10:37:20;;;;;;;7.15;3.95;;;9.70;99.90;;;;;;4951570;28;19925;-84
2024/01/29 10:39:48;;;;;;;6.85;5.15;;;9.70;99.90;;;;;;4952269;28;20048;-82
2024/01/29 10:42:17;;;;;;;7.22;5.30;;;9.70;99.90;;;;;;4968475;28;20042;-81
2024/01/29 10:44:45;;;;;;;5.88;4.70;;;9.80;99.90;;;;;;4968373;28;20035;-82
2024/01/29 10:47:28;;;;;;;6.55;4.80;;;9.90;99.90;;;;;;4953002;28;20039;-83
2024/01/29 10:49:56;;;;;;;5.90;4.80;;;10.00;99.90;;;;;;4950197;28;20055;-83
2024/01/29 10:52:24;;;;;;;5.43;4.35;;;10.10;99.90;;;;;;4950365;28;20498;-80
2024/01/29 10:54:51;;;;;;;6.10;4.35;;;10.30;99.90;;;;;;4968490;28;20042;-86
2024/01/29 10:57:20;;;;;;;7.63;4.82;;;10.60;99.90;;;;;;4966438;28;20502;-82
2024/01/29 10:59:48;;;;;;;6.35;5.10;;;10.70;99.90;;;;;;4967877;28;20051;-83
2024/01/29 11:02:14;;;;;;;7.13;5.40;;;10.60;99.90;;;;;;4967386;28;20035;-81
2024/01/29 11:04:41;;;;;;;5.82;4.72;;;10.40;99.90;;;;;;4967296;28;20039;-78
2024/01/29 11:07:15;;;;;;;8.02;6.07;;;10.20;99.90;;;;;;4968740;28;20044;-86
2024/01/29 11:09:55;;;;;;;8.23;5.80;;;9.90;99.90;;;;;;4984543;28;20038;-86
2024/01/29 11:12:22;;;;;;;6.40;4.97;;;9.70;99.90;;;;;;4937035;28;20031;-81
2024/01/29 11:15:04;;;;;;;6.70;5.57;;;9.60;99.90;;;;;;4953387;28;20058;-86
2024/01/29 11:17:30;;;;;;;6.93;5.60;;;9.50;99.90;;;;;;4954179;28;20042;-82
2024/01/29 11:20:10;;;;;;;6.43;4.88;;;9.40;99.90;;;;;;4938058;28;20050;-84
2024/01/29 11:22:38;;;;;;;7.78;4.75;;;9.30;99.90;;;;;;4968819;28;20077;-83
2024/01/29 11:25:15;;;;;;;7.05;5.65;;;9.30;99.90;;;;;;4965015;28;20032;-81
2024/01/29 11:27:48;;;;;;;7.32;4.75;;;9.20;99.90;;;;;;4968985;28;20031;-80
2024/01/29 11:30:25;;;;;;;7.57;5.68;;;9.20;99.90;;;;;;4970400;28;20042;-84
2024/01/29 11:32:54;;;;;;;9.68;7.30;;;9.20;99.90;;;;;;4971850;28;20038;-83
2024/01/29 11:35:23;;;;;;;7.53;6.00;;;9.20;99.90;;;;;;4962534;28;20054;-79
2024/01/29 11:37:50;;;;;;;8.60;5.65;;;9.20;99.90;;;;;;4939405;28;20050;-81
2024/01/29 11:40:33;;;;;;;12.43;6.60;;;9.20;99.90;;;;;;4971217;28;20569;-83
2024/01/29 11:43:02;;;;;;;10.88;6.97;;;9.20;99.90;;;;;;4971089;28;20080;-86
2024/01/29 11:45:29;;;;;;;8.98;7.50;;;9.20;99.90;;;;;;4986059;28;20043;-86
2024/01/29 11:47:57;;;;;;;9.77;7.45;;;9.10;99.90;;;;;;4955077;28;20426;-82
2024/01/29 11:50:24;;;;;;;11.50;6.45;;;9.20;99.90;;;;;;4967987;28;20043;-81
2024/01/29 11:52:51;;;;;;;9.27;6.80;;;9.20;99.90;;;;;;4969971;28;20509;-82
2024/01/29 11:55:20;;;;;;;11.18;8.10;;;9.20;99.90;;;;;;4953488;28;20051;-82
2024/01/29 11:57:47;;;;;;;11.48;7.78;;;9.20;99.90;;;;;;4953206;28;20070;-82
2024/01/29 12:00:20;;;;;;;11.98;7.68;;;9.30;99.90;;;;;;4938881;28;20042;-77
2024/01/29 12:02:48;;;;;;;10.07;6.85;;;9.30;99.90;;;;;;4966853;28;20046;-77
2024/01/29 12:05:16;;;;;;;9.80;6.95;;;9.30;99.90;;;;;;4950323;28;20039;-77
2024/01/29 12:07:45;;;;;;;8.02;6.22;;;9.30;99.90;;;;;;4939515;28;20501;-77
2024/01/29 12:10:11;;;;;;;10.85;7.15;;;9.40;99.90;;;;;;4970174;28;20357;-76
2024/01/29 12:12:37;;;;;;;9.75;6.95;;;9.40;99.90;;;;;;4936943;28;20051;-84
2024/01/29 12:15:06;;;;;;;11.00;7.65;;;9.40;99.90;;;;;;4969430;28;20153;-83
2024/01/29 12:17:36;;;;;;;10.48;7.07;;;9.50;99.90;;;;;;4970017;28;20047;-81
2024/01/29 12:20:02;;;;;;;10.98;8.20;;;9.50;99.90;;;;;;4939117;28;20345;-81
2024/01/29 12:22:29;;;;;;;8.90;6.55;;;9.60;99.90;;;;;;4969915;28;20866;-83
2024/01/29 12:24:56;;;;;;;10.73;6.68;;;9.60;99.90;;;;;;4953780;28;20043;-82
2024/01/29 12:27:23;;;;;;;10.32;7.07;;;9.60;99.90;;;;;;4970023;28;20544;-84
2024/01/29 12:29:51;;;;;;;9.18;6.78;;;9.70;99.90;;;;;;4938466;28;20031;-82
2024/01/29 12:32:20;;;;;;;8.98;6.25;;;9.70;99.90;;;;;;4968618;28;20035;-83
2024/01/29 12:34:48;;;;;;;8.32;6.38;;;9.70;99.90;;;;;;4970225;28;20061;-82
2024/01/29 12:37:18;;;;;;;8.05;7.15;;;9.80;99.90;;;;;;4969728;28;20035;-81
2024/01/29 12:39:51;;;;;;;9.18;7.45;;;9.80;99.90;;;;;;4952517;28;20514;-85
2024/01/29 12:42:17;;;;;;;9.20;7.65;;;9.90;99.90;;;;;;4986161;28;20505;-83
2024/01/29 12:44:44;;;;;;;9.60;6.63;;;9.90;99.90;;;;;;4952965;28;20042;-82
2024/01/29 12:47:20;;;;;;;8.32;6.80;;;9.90;99.90;;;;;;4938334;28;20027;-79
2024/01/29 12:49:47;;;;;;;6.55;5.55;;;10.00;99.90;;;;;;4969675;28;20035;-81
2024/01/29 12:52:15;;;;;;;9.45;6.75;;;10.10;99.90;;;;;;4968888;28;20047;-82
2024/01/29 12:54:48;;;;;;;7.88;6.35;;;10.10;99.90;;;;;;4952668;28;20039;-82